Time;durP1;ratioP1;P1;durP2;ratioP2;P2;SDS_P1;SDS_P2;PMS_P1;PMS_P2;Temp;Humidity;BMP_temperature;BMP_pressure;BME280_temperature;BME280_humidity;BME280_pressure;Samples;Min_cycle;Max_cycle;Signal;HPM_P1;HPM_P2
2021/06/26 00:01:13;;;;;;;25.02;16.02;;;18.10;73.40;;;;;;5094303;28;20024;-51
2021/06/26 00:03:39;;;;;;;26.02;17.33;;;18.10;73.70;;;;;;5094584;28;20031;-48
2021/06/26 00:06:05;;;;;;;24.00;16.45;;;18.00;73.90;;;;;;5093974;28;20028;-48
2021/06/26 00:08:30;;;;;;;20.67;15.43;;;17.90;74.40;;;;;;5075793;28;20020;-48
2021/06/26 00:10:57;;;;;;;21.40;16.35;;;17.80;75.00;;;;;;5093933;28;20349;-47
2021/06/26 00:13:23;;;;;;;23.73;16.00;;;17.70;75.40;;;;;;5076174;28;20061;-47
2021/06/26 00:15:49;;;;;;;21.83;15.77;;;17.70;75.50;;;;;;5094011;28;20033;-51
2021/06/26 00:18:16;;;;;;;24.52;15.07;;;17.70;75.60;;;;;;5094150;28;20031;-49
2021/06/26 00:20:42;;;;;;;22.60;15.98;;;17.70;75.60;;;;;;5094189;28;20031;-49
2021/06/26 00:23:08;;;;;;;22.17;16.77;;;17.70;75.70;;;;;;5093752;28;20049;-48
2021/06/26 00:25:34;;;;;;;22.08;15.43;;;17.60;75.90;;;;;;5094121;28;20026;-47
2021/06/26 00:28:00;;;;;;;26.38;16.85;;;17.50;76.30;;;;;;5094352;28;20378;-50
2021/06/26 00:30:26;;;;;;;22.27;16.25;;;17.50;76.50;;;;;;5094164;28;20066;-53
2021/06/26 00:32:52;;;;;;;23.13;15.40;;;17.40;76.70;;;;;;5093872;28;20036;-50
2021/06/26 00:35:18;;;;;;;21.45;15.32;;;17.40;77.00;;;;;;5094097;28;20078;-49
2021/06/26 00:37:43;;;;;;;21.25;15.45;;;17.50;76.60;;;;;;5093693;28;20024;-48
2021/06/26 00:40:10;;;;;;;24.38;15.75;;;17.40;77.00;;;;;;5093754;28;20093;-51
2021/06/26 00:42:38;;;;;;;21.73;16.65;;;17.30;77.40;;;;;;5075388;28;20024;-48
2021/06/26 00:45:09;;;;;;;22.38;16.98;;;17.30;77.80;;;;;;5093505;28;20468;-47
2021/06/26 00:47:36;;;;;;;28.45;16.85;;;17.30;78.10;;;;;;5093844;28;20024;-48
2021/06/26 00:50:05;;;;;;;21.92;17.38;;;17.30;78.00;;;;;;5093682;28;20471;-49
2021/06/26 00:52:30;;;;;;;21.95;16.85;;;17.30;78.10;;;;;;5093289;28;20028;-46
2021/06/26 00:54:56;;;;;;;23.08;16.23;;;17.20;78.40;;;;;;5091998;28;20429;-48
2021/06/26 00:57:22;;;;;;;22.50;16.50;;;17.10;78.60;;;;;;5093357;28;20380;-52
2021/06/26 00:59:48;;;;;;;25.52;17.88;;;17.10;78.70;;;;;;5095986;28;20028;-47
2021/06/26 01:02:14;;;;;;;27.25;18.33;;;17.10;78.70;;;;;;5097535;28;20020;-48
2021/06/26 01:04:40;;;;;;;27.05;18.35;;;17.00;79.00;;;;;;5097471;28;20023;-49
2021/06/26 01:07:06;;;;;;;26.00;16.70;;;17.00;79.10;;;;;;5079366;28;20036;-49
2021/06/26 01:09:32;;;;;;;26.25;18.23;;;17.00;79.20;;;;;;5097620;28;20035;-47
2021/06/26 01:11:58;;;;;;;29.70;17.45;;;16.90;79.70;;;;;;5097632;28;20063;-48
2021/06/26 01:14:33;;;;;;;25.10;17.88;;;16.90;79.30;;;;;;5098052;28;20028;-48
2021/06/26 01:17:07;;;;;;;22.27;16.92;;;16.80;79.70;;;;;;5097257;28;20027;-48
2021/06/26 01:19:34;;;;;;;27.02;18.58;;;16.80;79.80;;;;;;5097638;28;20103;-51
2021/06/26 01:22:03;;;;;;;24.55;17.63;;;16.90;79.80;;;;;;5097466;28;20035;-48
2021/06/26 01:24:29;;;;;;;26.10;18.43;;;16.90;79.80;;;;;;5097069;28;20013;-50
2021/06/26 01:26:58;;;;;;;28.20;17.05;;;16.80;80.40;;;;;;5098005;28;20364;-48
2021/06/26 01:29:25;;;;;;;24.33;18.02;;;16.80;80.60;;;;;;5097230;28;20031;-50
2021/06/26 01:31:51;;;;;;;19.90;15.48;;;16.70;80.90;;;;;;5097234;28;20028;-52
2021/06/26 01:34:17;;;;;;;28.65;17.98;;;16.60;80.80;;;;;;5096990;28;20113;-48
2021/06/26 01:36:43;;;;;;;24.45;16.88;;;16.60;80.70;;;;;;5097005;28;20115;-47
2021/06/26 01:39:08;;;;;;;24.63;17.38;;;16.60;80.90;;;;;;5097076;28;20028;-50
2021/06/26 01:41:34;;;;;;;31.20;19.38;;;16.50;81.20;;;;;;5096845;28;20017;-48
2021/06/26 01:44:00;;;;;;;27.92;19.13;;;16.60;81.00;;;;;;5097181;28;20016;-51
2021/06/26 01:46:26;;;;;;;24.80;18.50;;;16.70;80.40;;;;;;5096661;28;20447;-47
2021/06/26 01:48:53;;;;;;;25.67;18.60;;;16.70;80.60;;;;;;5096962;28;20105;-47
2021/06/26 01:51:18;;;;;;;24.75;17.70;;;16.60;80.80;;;;;;5096669;28;20035;-49
2021/06/26 01:53:44;;;;;;;23.85;17.80;;;16.50;81.00;;;;;;5096571;28;20073;-48
2021/06/26 01:56:13;;;;;;;24.67;17.17;;;16.50;81.40;;;;;;5096396;28;20111;-49
2021/06/26 01:58:39;;;;;;;22.85;15.88;;;16.40;81.70;;;;;;5078831;28;20051;-49
2021/06/26 02:01:05;;;;;;;25.80;16.92;;;16.30;82.10;;;;;;5096651;28;20107;-49
2021/06/26 02:03:31;;;;;;;21.40;16.05;;;16.30;82.60;;;;;;5096343;28;20491;-49
2021/06/26 02:05:56;;;;;;;25.95;17.25;;;16.10;82.90;;;;;;5096348;28;20028;-48
2021/06/26 02:08:22;;;;;;;23.60;15.70;;;16.10;83.00;;;;;;5096172;28;20028;-51
2021/06/26 02:10:48;;;;;;;22.17;17.33;;;16.10;83.30;;;;;;5095765;28;20028;-48
2021/06/26 02:13:13;;;;;;;24.63;16.70;;;16.10;83.00;;;;;;5096437;28;20396;-50
2021/06/26 02:15:39;;;;;;;21.88;16.98;;;16.10;83.20;;;;;;5095839;28;20103;-47
2021/06/26 02:18:04;;;;;;;26.65;17.40;;;16.20;82.90;;;;;;5096007;28;20485;-48
2021/06/26 02:20:30;;;;;;;24.30;16.83;;;16.10;82.80;;;;;;5096110;28;20024;-50
2021/06/26 02:22:56;;;;;;;25.23;17.70;;;16.10;82.70;;;;;;5095963;28;20089;-49
2021/06/26 02:25:21;;;;;;;25.25;16.48;;;16.10;82.50;;;;;;5095845;28;20016;-48
2021/06/26 02:27:47;;;;;;;20.42;15.55;;;16.00;82.90;;;;;;5095861;28;20070;-49
2021/06/26 02:30:14;;;;;;;25.55;17.30;;;16.00;83.30;;;;;;5095774;28;20420;-49
2021/06/26 02:32:40;;;;;;;26.38;18.83;;;16.00;83.20;;;;;;5096312;28;20048;-51
2021/06/26 02:35:07;;;;;;;25.83;17.50;;;16.00;83.00;;;;;;5095816;28;20024;-47
2021/06/26 02:37:33;;;;;;;28.40;17.55;;;16.00;83.00;;;;;;5096156;28;20027;-48
2021/06/26 02:39:59;;;;;;;27.77;18.50;;;16.00;83.10;;;;;;5096117;28;20340;-48
2021/06/26 02:42:25;;;;;;;29.05;19.55;;;16.00;82.90;;;;;;5095549;28;20463;-49
2021/06/26 02:44:50;;;;;;;23.05;16.73;;;16.00;82.80;;;;;;5095443;28;20047;-48
2021/06/26 02:47:18;;;;;;;26.90;20.38;;;15.90;82.80;;;;;;5095682;28;20464;-50
2021/06/26 02:49:43;;;;;;;25.17;18.80;;;15.90;83.00;;;;;;5095340;28;20028;-49
2021/06/26 02:52:09;;;;;;;26.83;18.00;;;15.90;82.90;;;;;;5095425;28;20028;-47
2021/06/26 02:54:35;;;;;;;24.73;17.90;;;16.00;82.90;;;;;;5095386;28;20066;-49
2021/06/26 02:57:01;;;;;;;27.08;17.83;;;15.90;83.10;;;;;;5095258;28;20058;-50
2021/06/26 02:59:27;;;;;;;23.98;17.55;;;15.90;83.10;;;;;;5095417;28;20031;-48
2021/06/26 03:01:52;;;;;;;26.58;16.25;;;16.00;83.00;;;;;;5095917;28;20384;-48
2021/06/26 03:04:19;;;;;;;30.83;17.65;;;15.90;83.00;;;;;;5095048;28;20046;-47
2021/06/26 03:06:45;;;;;;;23.08;15.90;;;15.80;83.40;;;;;;5095040;28;20036;-48
2021/06/26 03:09:11;;;;;;;22.02;15.85;;;15.60;84.20;;;;;;5094983;28;20020;-51
2021/06/26 03:11:36;;;;;;;28.13;17.50;;;15.60;84.60;;;;;;5094897;28;20028;-50
2021/06/26 03:14:02;;;;;;;28.30;18.38;;;15.60;84.60;;;;;;5095178;28;20024;-50
2021/06/26 03:16:28;;;;;;;26.30;17.75;;;15.60;84.60;;;;;;5095068;28;20077;-50
2021/06/26 03:18:53;;;;;;;25.67;18.58;;;15.70;84.50;;;;;;5094812;28;20016;-48
2021/06/26 03:21:19;;;;;;;23.55;17.08;;;15.70;84.40;;;;;;5094762;28;20413;-46
2021/06/26 03:23:44;;;;;;;25.50;16.45;;;15.70;84.30;;;;;;5094022;28;20024;-46
2021/06/26 03:26:10;;;;;;;29.80;18.30;;;15.70;84.20;;;;;;5095197;28;20069;-47
2021/06/26 03:28:36;;;;;;;20.40;15.45;;;15.70;84.10;;;;;;5094935;28;20027;-48
2021/06/26 03:31:03;;;;;;;29.10;19.25;;;15.60;84.30;;;;;;5094847;28;20097;-46
2021/06/26 03:33:29;;;;;;;22.98;17.48;;;15.60;84.70;;;;;;5094311;28;20044;-50
2021/06/26 03:35:54;;;;;;;28.15;19.48;;;15.60;84.80;;;;;;5076196;28;20032;-49
2021/06/26 03:38:20;;;;;;;24.70;18.75;;;15.70;84.70;;;;;;5094751;28;20016;-48
2021/06/26 03:40:46;;;;;;;25.40;17.95;;;15.70;84.60;;;;;;5094231;28;20020;-46
2021/06/26 03:43:11;;;;;;;23.67;17.48;;;15.70;84.40;;;;;;5094247;28;20046;-46
2021/06/26 03:45:37;;;;;;;27.98;19.73;;;15.80;84.10;;;;;;5094546;28;20020;-47
2021/06/26 03:48:03;;;;;;;24.20;18.00;;;15.80;84.00;;;;;;5094559;28;20452;-47
2021/06/26 03:50:32;;;;;;;23.33;16.52;;;15.80;84.20;;;;;;5094231;28;20017;-48
2021/06/26 03:52:58;;;;;;;28.25;19.20;;;15.80;84.00;;;;;;5094387;28;20535;-50
2021/06/26 03:55:23;;;;;;;26.88;18.77;;;15.70;83.90;;;;;;5094087;28;20157;-48
2021/06/26 03:57:49;;;;;;;26.30;17.77;;;15.70;84.20;;;;;;5094064;28;20020;-47
2021/06/26 04:00:15;;;;;;;24.67;17.92;;;15.80;84.10;;;;;;5094036;28;20416;-49
2021/06/26 04:02:41;;;;;;;23.67;16.52;;;15.80;83.90;;;;;;5094271;28;20020;-48
2021/06/26 04:05:07;;;;;;;26.45;19.70;;;15.80;83.80;;;;;;5094035;28;20483;-47
2021/06/26 04:07:32;;;;;;;31.02;20.73;;;16.10;82.90;;;;;;5093953;28;20325;-46
2021/06/26 04:09:58;;;;;;;30.23;18.85;;;16.10;82.50;;;;;;5075749;28;20028;-45
2021/06/26 04:12:24;;;;;;;32.47;19.10;;;16.20;82.10;;;;;;5093879;28;20468;-45
2021/06/26 04:14:49;;;;;;;30.00;18.83;;;16.30;82.00;;;;;;5093951;28;20054;-45
2021/06/26 04:17:15;;;;;;;24.65;16.58;;;16.30;81.90;;;;;;5094023;28;20520;-46
2021/06/26 04:19:40;;;;;;;26.13;17.25;;;16.30;81.70;;;;;;5094089;28;20028;-49
2021/06/26 04:22:06;;;;;;;21.88;17.02;;;16.30;81.60;;;;;;5093734;28;20023;-47
2021/06/26 04:24:32;;;;;;;22.73;17.17;;;16.30;81.70;;;;;;5093951;28;20483;-49
2021/06/26 04:26:57;;;;;;;25.00;16.50;;;16.30;81.60;;;;;;5093683;28;20099;-48
2021/06/26 04:29:24;;;;;;;25.17;17.67;;;16.40;81.30;;;;;;5093707;28;20047;-47
2021/06/26 04:31:51;;;;;;;25.02;18.30;;;16.40;81.40;;;;;;5093911;28;20024;-46
2021/06/26 04:34:17;;;;;;;25.40;20.02;;;16.50;81.40;;;;;;5038176;28;20123;-48
2021/06/26 04:36:44;;;;;;;27.25;18.30;;;16.50;81.60;;;;;;5053590;28;20112;-50
2021/06/26 04:39:09;;;;;;;25.25;19.02;;;16.70;81.20;;;;;;5053863;28;20021;-46
2021/06/26 04:41:36;;;;;;;27.10;18.27;;;16.80;80.00;;;;;;5053564;28;20491;-48
2021/06/26 04:44:04;;;;;;;24.42;19.95;;;16.90;80.20;;;;;;5053644;28;20032;-46
2021/06/26 04:46:29;;;;;;;24.10;18.10;;;16.90;80.00;;;;;;5053339;28;20106;-46
2021/06/26 04:48:55;;;;;;;28.40;18.98;;;17.10;79.70;;;;;;5053351;28;20553;-48
2021/06/26 04:51:21;;;;;;;28.05;19.58;;;17.30;78.60;;;;;;5053581;28;20025;-48
2021/06/26 04:53:47;;;;;;;27.98;20.65;;;17.30;78.60;;;;;;5053206;28;20045;-48
2021/06/26 04:56:12;;;;;;;29.08;21.15;;;17.20;78.90;;;;;;5053196;28;20021;-48
2021/06/26 04:58:38;;;;;;;28.25;20.38;;;17.20;79.10;;;;;;5052781;28;20021;-50
2021/06/26 05:01:04;;;;;;;29.05;19.38;;;17.20;79.20;;;;;;5052974;28;20027;-49
2021/06/26 05:03:30;;;;;;;31.15;21.83;;;17.20;79.20;;;;;;5053223;28;20029;-48
2021/06/26 05:05:56;;;;;;;28.15;21.00;;;17.20;79.20;;;;;;5053711;28;20025;-47
2021/06/26 05:08:21;;;;;;;25.98;18.42;;;17.40;78.70;;;;;;5053154;28;20025;-51
2021/06/26 05:10:48;;;;;;;27.63;19.25;;;17.30;78.90;;;;;;5053898;28;20025;-51
2021/06/26 05:13:15;;;;;;;28.83;19.35;;;17.40;79.60;;;;;;5053170;28;20025;-48
2021/06/26 05:15:44;;;;;;;24.40;17.27;;;17.30;79.90;;;;;;5053286;28;20029;-48
2021/06/26 05:18:10;;;;;;;27.65;18.58;;;17.10;80.60;;;;;;5053249;28;20021;-48
2021/06/26 05:20:37;;;;;;;25.40;18.63;;;17.00;80.60;;;;;;5054384;28;20047;-52
2021/06/26 05:23:13;;;;;;;23.38;18.42;;;16.90;80.90;;;;;;5052967;28;20388;-50
2021/06/26 05:25:39;;;;;;;24.67;17.42;;;16.80;81.50;;;;;;5055181;28;20135;-50
2021/06/26 05:28:05;;;;;;;23.02;18.38;;;17.00;81.20;;;;;;5053096;28;20032;-52
2021/06/26 05:30:31;;;;;;;29.50;19.65;;;17.30;80.20;;;;;;5052779;28;20535;-47
2021/06/26 05:32:56;;;;;;;31.15;20.00;;;17.50;78.90;;;;;;5066076;28;20488;-48
2021/06/26 05:35:22;;;;;;;28.98;22.48;;;17.40;78.90;;;;;;5093081;28;20020;-48
2021/06/26 05:37:47;;;;;;;35.35;22.25;;;17.70;78.00;;;;;;5092892;28;20024;-53
2021/06/26 05:40:14;;;;;;;33.03;21.70;;;17.70;77.90;;;;;;5097652;28;20487;-39
2021/06/26 05:42:39;;;;;;;39.33;25.88;;;18.10;76.80;;;;;;5075129;28;20028;-36
2021/06/26 05:45:06;;;;;;;31.33;21.45;;;18.20;76.60;;;;;;5092748;28;20020;-36
2021/06/26 05:47:31;;;;;;;28.42;20.67;;;18.20;76.60;;;;;;5096061;28;20038;-36
2021/06/26 05:49:59;;;;;;;33.80;23.35;;;18.10;77.10;;;;;;5096798;28;20110;-36
2021/06/26 05:52:25;;;;;;;35.72;22.98;;;18.10;77.50;;;;;;5096788;28;20115;-37
2021/06/26 05:54:50;;;;;;;32.60;25.20;;;18.20;77.40;;;;;;5096258;28;20066;-37
2021/06/26 05:57:16;;;;;;;35.33;24.40;;;18.60;76.10;;;;;;5095870;28;20472;-36
2021/06/26 05:59:42;;;;;;;35.53;23.85;;;18.70;75.80;;;;;;5096195;28;20024;-36
2021/06/26 06:02:17;;;;;;;36.20;25.20;;;18.60;76.20;;;;;;5095879;28;20021;-36
2021/06/26 06:04:42;;;;;;;42.50;28.23;;;18.60;76.50;;;;;;5096159;28;20027;-36
2021/06/26 06:07:10;;;;;;;37.10;26.45;;;18.80;76.60;;;;;;5096168;28;20026;-37
2021/06/26 06:09:36;;;;;;;42.40;29.15;;;19.00;75.80;;;;;;5096682;28;20058;-36
2021/06/26 06:12:02;;;;;;;50.63;31.65;;;19.10;75.20;;;;;;5096332;28;20024;-36
2021/06/26 06:14:27;;;;;;;40.15;31.25;;;19.30;74.50;;;;;;5095896;28;20036;-37
2021/06/26 06:16:53;;;;;;;47.15;34.42;;;19.40;74.00;;;;;;5095752;28;20020;-36
2021/06/26 06:19:19;;;;;;;49.45;34.15;;;19.40;73.20;;;;;;5095933;28;20031;-36
2021/06/26 06:21:44;;;;;;;49.90;34.65;;;19.30;73.40;;;;;;5094520;28;20069;-37
2021/06/26 06:24:10;;;;;;;48.70;31.48;;;19.30;73.20;;;;;;5096115;28;20103;-36
2021/06/26 06:26:36;;;;;;;39.10;28.75;;;19.30;72.40;;;;;;5096068;28;20047;-36
2021/06/26 06:29:01;;;;;;;37.13;29.17;;;19.50;71.10;;;;;;5095901;28;20028;-36
2021/06/26 06:31:27;;;;;;;38.97;29.23;;;19.60;70.80;;;;;;5095575;28;20081;-36
2021/06/26 06:33:52;;;;;;;43.25;28.70;;;19.60;70.50;;;;;;5095335;28;20052;-36
2021/06/26 06:36:18;;;;;;;37.63;27.77;;;19.50;71.20;;;;;;5096015;28;20024;-36
2021/06/26 06:38:44;;;;;;;36.92;26.80;;;19.60;71.20;;;;;;5095337;28;20027;-37
2021/06/26 06:41:09;;;;;;;35.58;27.33;;;19.80;70.60;;;;;;5095723;28;20016;-37
2021/06/26 06:43:35;;;;;;;40.60;28.55;;;20.00;69.50;;;;;;5096441;28;20036;-36
2021/06/26 06:46:03;;;;;;;37.38;27.65;;;20.10;69.10;;;;;;5098286;28;20024;-49
2021/06/26 06:48:29;;;;;;;33.55;26.27;;;20.40;67.90;;;;;;5095098;28;20029;-50
2021/06/26 06:50:55;;;;;;;34.42;25.45;;;20.10;68.60;;;;;;5095285;28;20031;-50
2021/06/26 06:53:21;;;;;;;39.80;27.10;;;20.10;68.30;;;;;;5095391;28;20095;-48
2021/06/26 06:55:52;;;;;;;36.33;26.95;;;20.20;68.40;;;;;;5095465;28;20467;-49
2021/06/26 06:58:19;;;;;;;39.47;25.85;;;20.20;68.10;;;;;;5095177;28;20020;-48
2021/06/26 07:00:45;;;;;;;45.42;29.60;;;20.40;67.70;;;;;;5094911;28;20065;-50
2021/06/26 07:03:10;;;;;;;35.38;26.45;;;20.50;67.70;;;;;;5094939;28;20024;-50
2021/06/26 07:05:36;;;;;;;34.30;24.83;;;20.60;66.90;;;;;;5095715;28;20024;-51
2021/06/26 07:08:02;;;;;;;40.67;25.58;;;20.90;65.10;;;;;;5095225;28;20399;-48
2021/06/26 07:10:27;;;;;;;32.55;24.20;;;21.20;64.30;;;;;;5094755;28;20028;-53
2021/06/26 07:12:53;;;;;;;41.33;24.15;;;21.50;62.90;;;;;;5095745;28;20328;-48
2021/06/26 07:15:18;;;;;;;27.63;21.02;;;21.30;63.40;;;;;;5095084;28;20031;-48
2021/06/26 07:17:44;;;;;;;29.95;22.13;;;21.30;61.50;;;;;;5094862;28;20035;-50
2021/06/26 07:20:11;;;;;;;28.95;21.48;;;21.20;61.20;;;;;;5095131;28;20391;-51
2021/06/26 07:22:36;;;;;;;27.02;19.70;;;21.40;60.80;;;;;;5094603;28;20089;-48
2021/06/26 07:25:02;;;;;;;30.83;20.83;;;21.40;60.20;;;;;;5093297;28;20111;-48
2021/06/26 07:27:28;;;;;;;31.92;20.75;;;21.60;60.70;;;;;;5094305;28;20070;-53
2021/06/26 07:29:54;;;;;;;21.83;17.92;;;22.00;59.80;;;;;;5094797;28;20431;-51
2021/06/26 07:32:19;;;;;;;29.75;18.90;;;22.10;59.10;;;;;;5094096;28;20032;-46
2021/06/26 07:34:45;;;;;;;23.27;17.02;;;22.60;57.20;;;;;;5094174;28;20034;-48
2021/06/26 07:37:11;;;;;;;24.33;16.77;;;22.80;56.50;;;;;;5094712;28;20032;-53
2021/06/26 07:39:36;;;;;;;22.45;15.80;;;23.20;54.30;;;;;;5094633;28;20034;-48
2021/06/26 07:42:02;;;;;;;20.67;16.23;;;23.00;54.30;;;;;;5093962;28;20028;-48
2021/06/26 07:44:28;;;;;;;23.05;17.02;;;23.70;52.90;;;;;;5094362;28;20028;-49
2021/06/26 07:46:53;;;;;;;22.77;16.92;;;23.40;52.70;;;;;;5094319;28;20035;-56
2021/06/26 07:49:19;;;;;;;23.08;17.48;;;23.60;51.60;;;;;;5094086;28;20020;-49
2021/06/26 07:51:45;;;;;;;21.77;16.80;;;23.90;51.90;;;;;;5094086;28;20365;-53
2021/06/26 07:54:11;;;;;;;24.73;17.30;;;23.60;52.20;;;;;;5093405;28;20536;-48
2021/06/26 07:56:37;;;;;;;22.85;16.92;;;23.20;53.40;;;;;;5074466;28;20053;-47
2021/06/26 07:59:03;;;;;;;19.52;16.85;;;23.90;52.10;;;;;;5093954;28;20028;-52
2021/06/26 08:01:28;;;;;;;23.45;15.90;;;23.70;51.30;;;;;;5093782;28;20027;-51
2021/06/26 08:03:54;;;;;;;22.40;15.48;;;24.30;50.90;;;;;;5094060;28;20039;-50
2021/06/26 08:06:19;;;;;;;17.48;14.10;;;24.80;48.70;;;;;;5093585;28;20375;-53
2021/06/26 08:08:45;;;;;;;21.02;14.68;;;24.00;50.00;;;;;;5092968;28;20074;-49
2021/06/26 08:11:11;;;;;;;16.17;13.35;;;24.90;47.80;;;;;;5093579;28;20024;-49
2021/06/26 08:13:36;;;;;;;15.13;12.82;;;24.80;47.40;;;;;;5092339;28;20032;-47
2021/06/26 08:16:02;;;;;;;17.35;14.02;;;25.10;46.00;;;;;;5075158;28;20028;-51
2021/06/26 08:18:28;;;;;;;17.27;14.23;;;24.60;47.90;;;;;;5093431;28;20479;-49
2021/06/26 08:20:53;;;;;;;19.90;14.00;;;24.30;48.90;;;;;;5093737;28;20028;-53
2021/06/26 08:23:19;;;;;;;22.83;15.30;;;24.80;47.70;;;;;;5094366;28;20020;-52
2021/06/26 08:25:45;;;;;;;18.05;15.45;;;25.10;47.30;;;;;;5075184;28;20115;-55
2021/06/26 08:28:10;;;;;;;19.08;13.13;;;24.90;46.60;;;;;;5093658;28;20031;-51
2021/06/26 08:30:36;;;;;;;16.52;13.25;;;25.00;47.00;;;;;;5093918;28;20076;-52
2021/06/26 08:33:03;;;;;;;16.00;13.15;;;25.70;45.60;;;;;;5093100;28;20399;-51
2021/06/26 08:35:29;;;;;;;13.98;11.48;;;26.10;45.00;;;;;;5075095;28;20020;-47
2021/06/26 08:37:55;;;;;;;17.08;12.85;;;26.80;42.40;;;;;;5093479;28;20073;-54
2021/06/26 08:40:21;;;;;;;13.23;11.65;;;26.10;44.10;;;;;;5093351;28;20020;-48
2021/06/26 08:42:48;;;;;;;13.35;11.95;;;25.80;44.10;;;;;;5093521;28;20541;-53
2021/06/26 08:45:16;;;;;;;15.60;11.95;;;25.80;44.00;;;;;;5075359;28;20024;-50
2021/06/26 08:47:48;;;;;;;15.32;11.60;;;26.70;42.60;;;;;;5075212;28;20028;-49
2021/06/26 08:50:14;;;;;;;13.30;10.55;;;26.50;42.50;;;;;;5094376;28;20380;-53
2021/06/26 08:52:40;;;;;;;16.50;11.23;;;26.30;43.10;;;;;;5094065;28;20349;-52
2021/06/26 08:55:07;;;;;;;13.40;11.88;;;26.30;42.10;;;;;;5093461;28;20438;-52
2021/06/26 08:57:34;;;;;;;11.93;9.30;;;25.80;43.50;;;;;;5092916;28;20034;-50
2021/06/26 09:00:01;;;;;;;13.80;10.55;;;26.80;40.70;;;;;;5092986;28;20016;-51
2021/06/26 09:02:28;;;;;;;14.43;11.98;;;26.70;41.40;;;;;;5092947;28;20054;-50
2021/06/26 09:04:55;;;;;;;13.30;10.93;;;27.10;39.90;;;;;;5094158;28;20099;-48
2021/06/26 09:07:38;;;;;;;15.48;10.38;;;27.40;40.20;;;;;;5092977;28;20020;-50
2021/06/26 09:10:16;;;;;;;10.70;7.57;;;27.30;39.80;;;;;;5075035;28;20028;-50
2021/06/26 09:12:44;;;;;;;10.93;7.95;;;26.70;38.20;;;;;;5093083;28;20054;-53
2021/06/26 09:15:20;;;;;;;10.30;8.30;;;26.30;38.00;;;;;;5093166;28;20027;-51
2021/06/26 09:17:46;;;;;;;13.50;7.82;;;26.50;37.70;;;;;;5093072;28;20118;-51
2021/06/26 09:20:13;;;;;;;9.82;7.47;;;26.20;38.10;;;;;;5092774;28;20058;-51
2021/06/26 09:22:51;;;;;;;12.43;7.13;;;26.50;37.80;;;;;;5096849;28;20047;-53
2021/06/26 09:25:23;;;;;;;7.13;6.40;;;26.70;35.60;;;;;;5096936;28;20020;-50
2021/06/26 09:27:48;;;;;;;11.55;7.68;;;27.00;35.00;;;;;;5078404;28;20032;-54
2021/06/26 09:30:15;;;;;;;9.95;8.23;;;27.00;36.20;;;;;;5096967;28;20379;-52
2021/06/26 09:32:48;;;;;;;9.02;7.45;;;27.40;35.70;;;;;;5078406;28;20055;-47
2021/06/26 09:35:16;;;;;;;8.35;7.55;;;27.80;34.80;;;;;;5096741;28;20472;-51
2021/06/26 09:37:42;;;;;;;10.20;7.30;;;27.00;35.70;;;;;;5078900;28;20051;-53
2021/06/26 09:40:11;;;;;;;9.30;6.53;;;27.70;34.50;;;;;;5097704;28;20028;-51
2021/06/26 09:42:37;;;;;;;11.02;7.63;;;28.40;33.80;;;;;;5096643;28;20062;-49
2021/06/26 09:45:05;;;;;;;8.95;5.72;;;27.30;35.40;;;;;;5096612;28;20025;-48
2021/06/26 09:47:35;;;;;;;7.18;5.65;;;27.70;34.40;;;;;;5096911;28;20066;-47
2021/06/26 09:50:20;;;;;;;8.55;6.65;;;28.30;33.00;;;;;;5096319;28;20024;-53
2021/06/26 09:52:54;;;;;;;10.30;7.25;;;29.20;32.30;;;;;;5096665;28;20032;-55
2021/06/26 09:55:43;;;;;;;9.15;6.85;;;30.40;30.90;;;;;;5096176;28;20371;-49
2021/06/26 09:58:15;;;;;;;7.80;6.38;;;30.10;30.70;;;;;;5096841;28;20047;-51
2021/06/26 10:00:42;;;;;;;8.60;5.57;;;29.10;31.60;;;;;;5096186;28;20047;-56
2021/06/26 10:03:08;;;;;;;12.77;8.20;;;29.10;32.30;;;;;;5096800;28;20032;-47
2021/06/26 10:05:34;;;;;;;7.45;5.75;;;28.20;33.00;;;;;;5097053;28;20026;-49
2021/06/26 10:08:02;;;;;;;8.95;5.55;;;28.50;31.90;;;;;;5077864;28;20137;-51
2021/06/26 10:10:28;;;;;;;9.45;8.02;;;29.30;30.90;;;;;;5079249;28;20055;-50
2021/06/26 10:12:55;;;;;;;8.38;6.53;;;28.60;30.00;;;;;;5078310;28;20024;-50
2021/06/26 10:15:25;;;;;;;8.32;6.55;;;29.20;30.60;;;;;;5096556;28;20028;-52
2021/06/26 10:17:51;;;;;;;8.40;6.85;;;28.50;31.50;;;;;;5096661;28;20470;-49
2021/06/26 10:20:22;;;;;;;7.75;6.72;;;28.40;32.20;;;;;;5095763;28;20042;-51
2021/06/26 10:23:00;;;;;;;7.68;5.95;;;28.60;31.00;;;;;;5096026;28;20035;-54
2021/06/26 10:25:31;;;;;;;7.82;6.95;;;27.80;31.40;;;;;;5096735;28;20386;-50
2021/06/26 10:28:08;;;;;;;9.27;6.63;;;27.40;32.30;;;;;;5097853;28;20016;-51
2021/06/26 10:30:35;;;;;;;8.40;6.38;;;28.20;31.90;;;;;;5095691;28;20035;-49
2021/06/26 10:33:04;;;;;;;6.90;6.18;;;29.50;29.30;;;;;;5050264;28;20045;-49
2021/06/26 10:35:32;;;;;;;8.68;6.32;;;29.00;29.50;;;;;;5055198;28;20423;-49
2021/06/26 10:38:08;;;;;;;8.52;7.00;;;29.70;30.00;;;;;;5053660;28;20033;-49
2021/06/26 10:40:43;;;;;;;9.48;7.20;;;29.70;30.00;;;;;;5054697;28;20473;-51
2021/06/26 10:43:17;;;;;;;10.55;7.35;;;29.80;29.70;;;;;;5055817;28;20027;-53
2021/06/26 10:45:43;;;;;;;7.28;5.97;;;30.30;28.80;;;;;;5055143;28;20025;-50
2021/06/26 10:48:17;;;;;;;8.00;7.20;;;30.70;28.10;;;;;;5054750;28;20345;-48
2021/06/26 10:50:48;;;;;;;9.63;8.13;;;30.20;29.70;;;;;;5054721;28;20399;-50
2021/06/26 10:53:27;;;;;;;8.57;7.25;;;29.70;29.80;;;;;;5054800;28;20025;-50
2021/06/26 10:56:14;;;;;;;7.40;6.57;;;29.70;29.30;;;;;;5054444;28;20056;-49
2021/06/26 10:58:44;;;;;;;9.35;6.85;;;29.20;30.00;;;;;;5053673;28;20021;-47
2021/06/26 11:01:14;;;;;;;7.20;6.53;;;29.50;30.20;;;;;;5054172;28;20025;-50
2021/06/26 11:03:40;;;;;;;15.18;6.63;;;29.30;30.30;;;;;;5054114;28;20071;-48
2021/06/26 11:06:18;;;;;;;13.57;9.60;;;28.80;31.30;;;;;;5054436;28;20112;-50
2021/06/26 11:09:03;;;;;;;7.90;6.47;;;27.70;32.10;;;;;;5052870;28;20385;-49
2021/06/26 11:11:35;;;;;;;14.60;6.70;;;26.80;33.90;;;;;;5054695;28;20029;-54
2021/06/26 11:14:24;;;;;;;8.30;7.18;;;26.60;34.60;;;;;;5053437;28;20040;-52
2021/06/26 11:16:54;;;;;;;9.73;7.10;;;26.30;35.50;;;;;;5055266;28;20025;-50
2021/06/26 11:19:21;;;;;;;7.47;6.30;;;26.50;35.50;;;;;;5053465;28;20024;-49
2021/06/26 11:21:53;;;;;;;6.97;6.28;;;26.40;35.20;;;;;;5054880;28;20515;-52
2021/06/26 11:24:31;;;;;;;7.28;6.55;;;26.60;35.80;;;;;;5055033;28;20043;-52
2021/06/26 11:26:57;;;;;;;8.70;7.68;;;27.10;34.70;;;;;;5054984;28;20028;-48
2021/06/26 11:29:37;;;;;;;9.57;6.50;;;26.80;34.80;;;;;;5052973;28;20021;-51
2021/06/26 11:32:25;;;;;;;8.73;7.82;;;26.70;35.00;;;;;;5054345;28;20025;-50
2021/06/26 11:34:59;;;;;;;8.30;6.68;;;27.00;35.20;;;;;;5074004;28;20067;-52
2021/06/26 11:37:33;;;;;;;9.48;6.55;;;27.20;34.80;;;;;;5074567;28;20078;-51
2021/06/26 11:39:59;;;;;;;10.43;6.75;;;27.60;34.40;;;;;;5074640;28;20099;-51
2021/06/26 11:42:26;;;;;;;11.73;7.13;;;27.30;34.80;;;;;;5073542;28;20416;-54
2021/06/26 11:44:52;;;;;;;10.23;7.15;;;26.90;34.80;;;;;;5074468;28;20020;-49
2021/06/26 11:47:26;;;;;;;8.60;7.03;;;26.90;35.30;;;;;;5073056;28;20035;-53
2021/06/26 11:49:52;;;;;;;8.85;7.63;;;27.20;34.70;;;;;;5060121;28;20380;-52
2021/06/26 11:52:17;;;;;;;8.23;6.72;;;26.40;35.80;;;;;;5073657;28;20028;-53
2021/06/26 11:54:44;;;;;;;9.98;8.48;;;26.00;36.20;;;;;;5074072;28;20031;-50
2021/06/26 11:57:12;;;;;;;9.13;6.95;;;26.70;35.80;;;;;;5072414;28;20495;-51
2021/06/26 11:59:43;;;;;;;8.52;7.68;;;26.60;35.20;;;;;;5072898;28;20071;-48
2021/06/26 12:02:10;;;;;;;7.78;7.00;;;26.30;35.60;;;;;;5073925;28;20031;-50
2021/06/26 12:04:38;;;;;;;8.45;6.85;;;26.70;36.00;;;;;;5073940;28;20472;-48
2021/06/26 12:07:05;;;;;;;8.32;7.47;;;26.80;35.80;;;;;;5073336;28;20032;-48
2021/06/26 12:09:31;;;;;;;7.45;6.75;;;27.00;35.20;;;;;;5074394;28;20089;-47
2021/06/26 12:11:58;;;;;;;8.45;7.55;;;27.60;34.80;;;;;;5074110;28;20507;-48
2021/06/26 12:14:33;;;;;;;8.82;6.57;;;27.60;34.30;;;;;;5073795;28;20025;-49
2021/06/26 12:17:11;;;;;;;8.65;7.15;;;27.50;34.60;;;;;;5073792;28;20178;-48
2021/06/26 12:19:37;;;;;;;8.07;7.28;;;27.10;35.60;;;;;;5073209;28;20027;-48
2021/06/26 12:22:06;;;;;;;10.07;6.88;;;26.50;36.10;;;;;;5073445;28;20093;-48
2021/06/26 12:24:40;;;;;;;8.55;7.18;;;26.60;37.00;;;;;;5072208;28;20031;-49
2021/06/26 12:27:21;;;;;;;7.78;6.82;;;26.80;36.70;;;;;;5073685;28;20380;-52
2021/06/26 12:30:01;;;;;;;9.32;6.95;;;27.50;35.60;;;;;;5073879;28;20035;-47
2021/06/26 12:32:29;;;;;;;9.80;6.60;;;26.90;36.90;;;;;;5074778;28;20111;-49